Cochise — WDD8952 — position and weather

sailwx.info

Track history (hours):
 
Tides and Currents Weather Stations Pressure Air Temp Water Temp Dewpoint Dewpoint Depression Visibility Wind Speed Wind Dir Waves Ship Positions

Cochise

Owner: Sause Bros, Coos Bay, OR. More information available from US FCC via Universal Licensing System and Coast Guard Vessel Documentation Center.

Last reported at 2016-Dec-10 15:30 UTC. Time now 2016-Dec-11 14:03 UTC.
Position N 38°27' W 123°38'.

Length 32 m; draft 4.6 m.

Type: Tow > 200 m length. MMSI: 367304990.

Date/timePositionNaut miles runAvg speedWind from/ knotsBaromVisibWave heightAir tempDewpointWater temp
2016-Dec-10 15:30N 38°27' W 123°38'7 7.1
2016-Dec-10 14:33N 38°22' W 123°33'8 7.9
2016-Dec-10 13:31N 38°16' W 123°26'8 8.0
2016-Dec-10 12:33N 38°10' W 123°20'8 8.1
2016-Dec-10 11:33N 38°03' W 123°14'8 8.3
2016-Dec-10 10:32N 37°58' W 123°06'8 8.4
2016-Dec-10 09:33N 37°53' W 122°57'12 8.4
2016-Dec-10 08:10N 37°48' W 122°43'5 8.4
2016-Dec-10 07:33N 37°46' W 122°37'1010.3
2016-Dec-10 06:33N 37°50' W 122°26'5 5.1
2016-Dec-10 05:33N 37°55' W 122°25'0 0.2
2016-Dec-10 04:28N 37°55' W 122°25'0 0.0
2016-Dec-10 03:28N 37°55' W 122°25'0 0.0
2016-Dec-10 02:31N 37°55' W 122°25'0 0.0
2016-Dec-10 01:28N 37°55' W 122°25'0 0.0
2016-Dec-10 00:28N 37°55' W 122°25'0 0.0
2016-Dec-09 23:28N 37°55' W 122°25'0 0.0
2016-Dec-09 22:28N 37°55' W 122°25'0 0.0
2016-Dec-09 21:31N 37°55' W 122°25'0 0.0
2016-Dec-09 20:28N 37°55' W 122°25'0 0.0
2016-Dec-09 19:31N 37°55' W 122°25'0 0.0
2016-Dec-09 18:28N 37°55' W 122°25'0 0.0
2016-Dec-09 17:31N 37°55' W 122°25'0 0.0
2016-Dec-09 16:31N 37°55' W 122°25'0 0.0
2016-Dec-09 15:31N 37°55' W 122°25'0 0.0
2016-Dec-09 14:28N 37°55' W 122°25'0 0.0
2016-Dec-09 13:31N 37°55' W 122°25'0 0.0
2016-Dec-09 12:31N 37°55' W 122°25'0 0.0
2016-Dec-09 11:31N 37°55' W 122°25'0 0.0
2016-Dec-09 10:31N 37°55' W 122°25'0 0.0
2016-Dec-09 09:31N 37°55' W 122°25'0 0.0
2016-Dec-09 08:31N 37°55' W 122°25'0 0.0
2016-Dec-09 07:22N 37°55' W 122°25'0 0.0
2016-Dec-09 06:28N 37°55' W 122°25'0 0.0
2016-Dec-09 05:28N 37°55' W 122°25'0 0.0
2016-Dec-09 04:28N 37°55' W 122°25'0 0.0
2016-Dec-09 03:31N 37°55' W 122°25'0 0.0
2016-Dec-09 02:31N 37°55' W 122°25'1 0.9
2016-Dec-09 01:34N 37°54' W 122°24'2 1.9
2016-Dec-09 00:33N 37°55' W 122°22'0 0.0
2016-Dec-08 23:32N 37°55' W 122°22'0 0.0
2016-Dec-08 22:33N 37°55' W 122°22'0 0.0
2016-Dec-08 21:33N 37°55' W 122°22'0 0.0
2016-Dec-08 20:33N 37°55' W 122°22'0 0.0
2016-Dec-08 19:33N 37°55' W 122°22'0 0.0
2016-Dec-08 18:33N 37°55' W 122°22'0 0.0
2016-Dec-08 17:33N 37°55' W 122°22'0 0.0
2016-Dec-08 16:33N 37°55' W 122°22'0 0.0
2016-Dec-08 15:34N 37°55' W 122°22'0 0.0
2016-Dec-08 14:33N 37°55' W 122°22'0 0.0
2016-Dec-08 13:33N 37°55' W 122°22'0 0.0
2016-Dec-08 12:33N 37°55' W 122°22'0 0.0
2016-Dec-08 11:33N 37°55' W 122°22'0 0.0
2016-Dec-08 10:33N 37°55' W 122°22'0 0.0
2016-Dec-08 09:33N 37°55' W 122°22'0 0.0
2016-Dec-08 08:34N 37°55' W 122°22'0 0.0
2016-Dec-08 07:34N 37°55' W 122°22'0 0.0
2016-Dec-08 06:33N 37°55' W 122°22'0 0.0
2016-Dec-08 05:33N 37°55' W 122°22'0 0.0
2016-Dec-08 04:33N 37°55' W 122°22'0 0.0
2016-Dec-08 03:33N 37°55' W 122°22'0 0.0
2016-Dec-08 02:34N 37°55' W 122°22'0 0.0
2016-Dec-08 01:34N 37°55' W 122°22'0 0.0
2016-Dec-08 00:33N 37°55' W 122°22'0 0.0
2016-Dec-07 23:33N 37°55' W 122°22'0 0.0
2016-Dec-07 22:34N 37°55' W 122°22'0 0.0
2016-Dec-07 21:33N 37°55' W 122°22'0 0.0
2016-Dec-07 20:33N 37°55' W 122°22'0 0.0
2016-Dec-07 19:33N 37°55' W 122°22'0 0.0
2016-Dec-07 18:34N 37°55' W 122°22'0 0.0
2016-Dec-07 17:33N 37°55' W 122°22'0 0.0
2016-Dec-07 16:33N 37°55' W 122°22'0 0.0
2016-Dec-07 15:34N 37°55' W 122°22'0 0.0
2016-Dec-07 14:33N 37°55' W 122°22'0 0.0
2016-Dec-07 13:34N 37°55' W 122°22'0 0.0
2016-Dec-07 12:33N 37°55' W 122°22'0 0.0
2016-Dec-07 11:33N 37°55' W 122°22'0 0.0
2016-Dec-07 10:34N 37°55' W 122°22'0 0.0
2016-Dec-07 09:33N 37°55' W 122°22'0 0.0
2016-Dec-07 08:34N 37°55' W 122°22'0 0.0
2016-Dec-07 07:34N 37°55' W 122°22'0 0.0
2016-Dec-07 06:34N 37°55' W 122°22'0 0.0
2016-Dec-07 05:33N 37°55' W 122°22'0 0.0
2016-Dec-07 04:33N 37°55' W 122°22'0 0.0
2016-Dec-07 03:33N 37°55' W 122°22'0 0.0
2016-Dec-07 02:33N 37°55' W 122°22'0 0.0
2016-Dec-07 01:34N 37°55' W 122°22'0 0.0
2016-Dec-07 00:33N 37°55' W 122°22'0 0.0
2016-Dec-06 23:33N 37°55' W 122°22'0 0.0
2016-Dec-06 22:33N 37°55' W 122°22'0 0.0
2016-Dec-06 21:33N 37°55' W 122°22'0 0.0
2016-Dec-06 20:33N 37°55' W 122°22'0 0.0
2016-Dec-06 18:33N 37°55' W 122°22'0 0.0
2016-Dec-06 17:34N 37°55' W 122°22'0 0.0
2016-Dec-06 16:33N 37°55' W 122°22'0 0.0
2016-Dec-06 15:33N 37°55' W 122°22'0 0.0
2016-Dec-06 14:34N 37°55' W 122°22'0 0.0
2016-Dec-06 13:33N 37°55' W 122°22'0 0.0
2016-Dec-06 12:33N 37°55' W 122°22'0 0.0
2016-Dec-06 11:33N 37°55' W 122°22'0 0.0
2016-Dec-06 10:34N 37°55' W 122°22'0 0.0
2016-Dec-06 09:33N 37°55' W 122°22'0 0.0
2016-Dec-06 08:33N 37°55' W 122°22'0 0.0
2016-Dec-06 07:33N 37°55' W 122°22'0 0.0
2016-Dec-06 06:33N 37°55' W 122°22'0 0.0
2016-Dec-06 05:33N 37°55' W 122°22'0 0.0
2016-Dec-06 04:33N 37°55' W 122°22'0 0.0
2016-Dec-06 03:34N 37°55' W 122°22'0 0.0
2016-Dec-06 02:34N 37°55' W 122°22'0 0.0
2016-Dec-06 01:33N 37°55' W 122°22'0 0.0
2016-Dec-06 00:33N 37°55' W 122°22'0 0.0
2016-Dec-05 23:33N 37°55' W 122°22'0 0.0
2016-Dec-05 22:34N 37°55' W 122°22'0 0.0
2016-Dec-05 21:33N 37°55' W 122°22'0 0.0
2016-Dec-05 20:33N 37°55' W 122°22'0 0.0
2016-Dec-05 19:34N 37°55' W 122°22'0 0.0
2016-Dec-05 18:34N 37°55' W 122°22'0 0.0
2016-Dec-05 17:33N 37°55' W 122°22'0 0.0
2016-Dec-05 16:34N 37°55' W 122°22'0 0.0
2016-Dec-05 15:34N 37°55' W 122°22'0 0.0
2016-Dec-05 14:34N 37°55' W 122°22'0 0.0
2016-Dec-05 13:34N 37°55' W 122°22'0 0.0
2016-Dec-05 12:33N 37°55' W 122°22'0 0.0
2016-Dec-05 11:33N 37°55' W 122°22'0 0.0
2016-Dec-05 10:34N 37°55' W 122°22'5 4.9
2016-Dec-05 09:33N 37°50' W 122°22'2 1.8
2016-Dec-05 08:33N 37°49' W 122°20'0 0.0
2016-Dec-05 07:34N 37°49' W 122°20'0 0.0
2016-Dec-05 06:34N 37°49' W 122°20'0 0.0
2016-Dec-05 05:33N 37°49' W 122°20'0 0.0
2016-Dec-05 04:33N 37°49' W 122°20'0 0.0
2016-Dec-05 03:33N 37°49' W 122°20'0 0.0
2016-Dec-05 02:33N 37°49' W 122°20'0 0.0
2016-Dec-05 01:33N 37°49' W 122°20'0 0.0
2016-Dec-05 00:33N 37°49' W 122°20'6 5.8
2016-Dec-04 23:33N 37°54' W 122°22'1 0.6
2016-Dec-04 22:33N 37°55' W 122°22'0 0.0
2016-Dec-04 21:33N 37°55' W 122°22'0 0.0
2016-Dec-04 20:33N 37°55' W 122°22'0 0.0
2016-Dec-04 19:33N 37°55' W 122°22'0 0.0
2016-Dec-04 18:33N 37°55' W 122°22'3 3.2
2016-Dec-04 17:33N 37°56' W 122°25'7 7.2
2016-Dec-04 16:33N 38°02' W 122°21'8 7.7
2016-Dec-04 15:33N 38°03' W 122°12'4 4.4
2016-Dec-04 14:33N 38°03' W 122°06'0 0.0
2016-Dec-03 14:32N 38°03' W 122°06'6 6.5
2016-Dec-03 13:33N 38°04' W 122°14'1010.3
2016-Dec-03 12:33N 37°59' W 122°26'1010.4
2016-Dec-03 11:33N 37°49' W 122°23'2 2.1
2016-Dec-03 10:33N 37°46' W 122°23'0 0.0
2016-Dec-03 09:34N 37°46' W 122°23'0 0.0
2016-Dec-03 08:33N 37°46' W 122°23'0 0.0
2016-Dec-03 07:33N 37°46' W 122°23'0 0.0
2016-Dec-03 06:33N 37°46' W 122°23'0 0.0
2016-Dec-03 05:34N 37°46' W 122°23'0 0.0
2016-Dec-03 04:33N 37°46' W 122°23'0 0.0
2016-Dec-03 03:34N 37°46' W 122°23'3 3.2
2016-Dec-03 02:33N 37°50' W 122°24'4 3.6
2016-Dec-03 01:34N 37°53' W 122°25'7 6.7
2016-Dec-03 00:33N 37°46' W 122°23'0 0.0
2016-Dec-02 23:33N 37°46' W 122°23'0 0.0
2016-Dec-02 22:33N 37°46' W 122°23'0 0.0
2016-Dec-02 21:33N 37°46' W 122°23'0 0.0
2016-Dec-02 20:33N 37°46' W 122°23'0 0.0
2016-Dec-02 19:33N 37°46' W 122°23'0 0.0
2016-Dec-02 18:34N 37°46' W 122°23'0 0.0
2016-Dec-02 17:34N 37°46' W 122°23'2 1.5
2016-Dec-02 16:34N 37°48' W 122°23'8 7.7
2016-Dec-02 15:33N 37°55' W 122°26'0 0.0
2016-Dec-02 14:31N 37°55' W 122°26'0 0.0
2016-Dec-02 13:31N 37°55' W 122°26'0 0.0
2016-Dec-02 12:31N 37°55' W 122°26'0 0.0
2016-Dec-02 11:28N 37°55' W 122°26'0 0.6
2016-Dec-02 10:33N 37°55' W 122°26'9 8.6
2016-Dec-02 09:33N 37°48' W 122°32'9 9.5
2016-Dec-02 08:33N 37°46' W 122°43'9 8.8
2016-Dec-02 07:33N 37°49' W 122°54'9 9.0
2016-Dec-02 06:33N 37°54' W 123°04'9 9.0
2016-Dec-02 05:33N 37°59' W 123°13'9 9.3
2016-Dec-02 04:33N 38°06' W 123°20'10 9.6
2016-Dec-02 03:33N 38°15' W 123°26'10 9.6
2016-Dec-02 02:33N 38°23' W 123°32'10 9.6
2016-Dec-02 01:33N 38°32' W 123°38'11 9.7
2016-Dec-02 00:26N 38°41' W 123°44'  
Track history (hours):
 
Tides and Currents Weather Stations Pressure Air Temp Water Temp Dewpoint Dewpoint Depression Visibility Wind Speed Wind Dir Waves Ship Positions

Cochise

Owner: Sause Bros, Coos Bay, OR. More information available from US FCC via Universal Licensing System and Coast Guard Vessel Documentation Center.

Last reported at 2016-Dec-10 15:30 UTC. Time now 2016-Dec-11 14:03 UTC.
Position N 38°27' W 123°38'.

Length 32 m; draft 4.6 m.

Type: Tow > 200 m length. MMSI: 367304990.

Date/timePositionNaut miles runAvg speedWind from/ knotsBaromVisibWave heightAir tempDewpointWater temp
2016-Dec-10 15:30N 38°27' W 123°38'7 7.1
2016-Dec-10 14:33N 38°22' W 123°33'8 7.9
2016-Dec-10 13:31N 38°16' W 123°26'8 8.0
2016-Dec-10 12:33N 38°10' W 123°20'8 8.1
2016-Dec-10 11:33N 38°03' W 123°14'8 8.3
2016-Dec-10 10:32N 37°58' W 123°06'8 8.4
2016-Dec-10 09:33N 37°53' W 122°57'12 8.4
2016-Dec-10 08:10N 37°48' W 122°43'5 8.4
2016-Dec-10 07:33N 37°46' W 122°37'1010.3
2016-Dec-10 06:33N 37°50' W 122°26'5 5.1
2016-Dec-10 05:33N 37°55' W 122°25'0 0.2
2016-Dec-10 04:28N 37°55' W 122°25'0 0.0
2016-Dec-10 03:28N 37°55' W 122°25'0 0.0
2016-Dec-10 02:31N 37°55' W 122°25'0 0.0
2016-Dec-10 01:28N 37°55' W 122°25'0 0.0
2016-Dec-10 00:28N 37°55' W 122°25'0 0.0
2016-Dec-09 23:28N 37°55' W 122°25'0 0.0
2016-Dec-09 22:28N 37°55' W 122°25'0 0.0
2016-Dec-09 21:31N 37°55' W 122°25'0 0.0
2016-Dec-09 20:28N 37°55' W 122°25'0 0.0
2016-Dec-09 19:31N 37°55' W 122°25'0 0.0
2016-Dec-09 18:28N 37°55' W 122°25'0 0.0
2016-Dec-09 17:31N 37°55' W 122°25'0 0.0
2016-Dec-09 16:31N 37°55' W 122°25'0 0.0
2016-Dec-09 15:31N 37°55' W 122°25'0 0.0
2016-Dec-09 14:28N 37°55' W 122°25'0 0.0
2016-Dec-09 13:31N 37°55' W 122°25'0 0.0
2016-Dec-09 12:31N 37°55' W 122°25'0 0.0
2016-Dec-09 11:31N 37°55' W 122°25'0 0.0
2016-Dec-09 10:31N 37°55' W 122°25'0 0.0
2016-Dec-09 09:31N 37°55' W 122°25'0 0.0
2016-Dec-09 08:31N 37°55' W 122°25'0 0.0
2016-Dec-09 07:22N 37°55' W 122°25'0 0.0
2016-Dec-09 06:28N 37°55' W 122°25'0 0.0
2016-Dec-09 05:28N 37°55' W 122°25'0 0.0
2016-Dec-09 04:28N 37°55' W 122°25'0 0.0
2016-Dec-09 03:31N 37°55' W 122°25'0 0.0
2016-Dec-09 02:31N 37°55' W 122°25'1 0.9
2016-Dec-09 01:34N 37°54' W 122°24'2 1.9
2016-Dec-09 00:33N 37°55' W 122°22'0 0.0
2016-Dec-08 23:32N 37°55' W 122°22'0 0.0
2016-Dec-08 22:33N 37°55' W 122°22'0 0.0
2016-Dec-08 21:33N 37°55' W 122°22'0 0.0
2016-Dec-08 20:33N 37°55' W 122°22'0 0.0
2016-Dec-08 19:33N 37°55' W 122°22'0 0.0
2016-Dec-08 18:33N 37°55' W 122°22'0 0.0
2016-Dec-08 17:33N 37°55' W 122°22'0 0.0
2016-Dec-08 16:33N 37°55' W 122°22'0 0.0
2016-Dec-08 15:34N 37°55' W 122°22'0 0.0
2016-Dec-08 14:33N 37°55' W 122°22'0 0.0
2016-Dec-08 13:33N 37°55' W 122°22'0 0.0
2016-Dec-08 12:33N 37°55' W 122°22'0 0.0
2016-Dec-08 11:33N 37°55' W 122°22'0 0.0
2016-Dec-08 10:33N 37°55' W 122°22'0 0.0
2016-Dec-08 09:33N 37°55' W 122°22'0 0.0
2016-Dec-08 08:34N 37°55' W 122°22'0 0.0
2016-Dec-08 07:34N 37°55' W 122°22'0 0.0
2016-Dec-08 06:33N 37°55' W 122°22'0 0.0
2016-Dec-08 05:33N 37°55' W 122°22'0 0.0
2016-Dec-08 04:33N 37°55' W 122°22'0 0.0
2016-Dec-08 03:33N 37°55' W 122°22'0 0.0
2016-Dec-08 02:34N 37°55' W 122°22'0 0.0
2016-Dec-08 01:34N 37°55' W 122°22'0 0.0
2016-Dec-08 00:33N 37°55' W 122°22'0 0.0
2016-Dec-07 23:33N 37°55' W 122°22'0 0.0
2016-Dec-07 22:34N 37°55' W 122°22'0 0.0
2016-Dec-07 21:33N 37°55' W 122°22'0 0.0
2016-Dec-07 20:33N 37°55' W 122°22'0 0.0
2016-Dec-07 19:33N 37°55' W 122°22'0 0.0
2016-Dec-07 18:34N 37°55' W 122°22'0 0.0
2016-Dec-07 17:33N 37°55' W 122°22'0 0.0
2016-Dec-07 16:33N 37°55' W 122°22'0 0.0
2016-Dec-07 15:34N 37°55' W 122°22'0 0.0
2016-Dec-07 14:33N 37°55' W 122°22'0 0.0
2016-Dec-07 13:34N 37°55' W 122°22'0 0.0
2016-Dec-07 12:33N 37°55' W 122°22'0 0.0
2016-Dec-07 11:33N 37°55' W 122°22'0 0.0
2016-Dec-07 10:34N 37°55' W 122°22'0 0.0
2016-Dec-07 09:33N 37°55' W 122°22'0 0.0
2016-Dec-07 08:34N 37°55' W 122°22'0 0.0
2016-Dec-07 07:34N 37°55' W 122°22'0 0.0
2016-Dec-07 06:34N 37°55' W 122°22'0 0.0
2016-Dec-07 05:33N 37°55' W 122°22'0 0.0
2016-Dec-07 04:33N 37°55' W 122°22'0 0.0
2016-Dec-07 03:33N 37°55' W 122°22'0 0.0
2016-Dec-07 02:33N 37°55' W 122°22'0 0.0
2016-Dec-07 01:34N 37°55' W 122°22'0 0.0
2016-Dec-07 00:33N 37°55' W 122°22'0 0.0
2016-Dec-06 23:33N 37°55' W 122°22'0 0.0
2016-Dec-06 22:33N 37°55' W 122°22'0 0.0
2016-Dec-06 21:33N 37°55' W 122°22'0 0.0
2016-Dec-06 20:33N 37°55' W 122°22'0 0.0
2016-Dec-06 18:33N 37°55' W 122°22'0 0.0
2016-Dec-06 17:34N 37°55' W 122°22'0 0.0
2016-Dec-06 16:33N 37°55' W 122°22'0 0.0
2016-Dec-06 15:33N 37°55' W 122°22'0 0.0
2016-Dec-06 14:34N 37°55' W 122°22'0 0.0
2016-Dec-06 13:33N 37°55' W 122°22'0 0.0
2016-Dec-06 12:33N 37°55' W 122°22'0 0.0
2016-Dec-06 11:33N 37°55' W 122°22'0 0.0
2016-Dec-06 10:34N 37°55' W 122°22'0 0.0
2016-Dec-06 09:33N 37°55' W 122°22'0 0.0
2016-Dec-06 08:33N 37°55' W 122°22'0 0.0
2016-Dec-06 07:33N 37°55' W 122°22'0 0.0
2016-Dec-06 06:33N 37°55' W 122°22'0 0.0
2016-Dec-06 05:33N 37°55' W 122°22'0 0.0
2016-Dec-06 04:33N 37°55' W 122°22'0 0.0
2016-Dec-06 03:34N 37°55' W 122°22'0 0.0
2016-Dec-06 02:34N 37°55' W 122°22'0 0.0
2016-Dec-06 01:33N 37°55' W 122°22'0 0.0
2016-Dec-06 00:33N 37°55' W 122°22'0 0.0
2016-Dec-05 23:33N 37°55' W 122°22'0 0.0
2016-Dec-05 22:34N 37°55' W 122°22'0 0.0
2016-Dec-05 21:33N 37°55' W 122°22'0 0.0
2016-Dec-05 20:33N 37°55' W 122°22'0 0.0
2016-Dec-05 19:34N 37°55' W 122°22'0 0.0
2016-Dec-05 18:34N 37°55' W 122°22'0 0.0
2016-Dec-05 17:33N 37°55' W 122°22'0 0.0
2016-Dec-05 16:34N 37°55' W 122°22'0 0.0
2016-Dec-05 15:34N 37°55' W 122°22'0 0.0
2016-Dec-05 14:34N 37°55' W 122°22'0 0.0
2016-Dec-05 13:34N 37°55' W 122°22'0 0.0
2016-Dec-05 12:33N 37°55' W 122°22'0 0.0
2016-Dec-05 11:33N 37°55' W 122°22'0 0.0
2016-Dec-05 10:34N 37°55' W 122°22'5 4.9
2016-Dec-05 09:33N 37°50' W 122°22'2 1.8
2016-Dec-05 08:33N 37°49' W 122°20'0 0.0
2016-Dec-05 07:34N 37°49' W 122°20'0 0.0
2016-Dec-05 06:34N 37°49' W 122°20'0 0.0
2016-Dec-05 05:33N 37°49' W 122°20'0 0.0
2016-Dec-05 04:33N 37°49' W 122°20'0 0.0
2016-Dec-05 03:33N 37°49' W 122°20'0 0.0
2016-Dec-05 02:33N 37°49' W 122°20'0 0.0
2016-Dec-05 01:33N 37°49' W 122°20'0 0.0
2016-Dec-05 00:33N 37°49' W 122°20'6 5.8
2016-Dec-04 23:33N 37°54' W 122°22'1 0.6
2016-Dec-04 22:33N 37°55' W 122°22'0 0.0
2016-Dec-04 21:33N 37°55' W 122°22'0 0.0
2016-Dec-04 20:33N 37°55' W 122°22'0 0.0
2016-Dec-04 19:33N 37°55' W 122°22'0 0.0
2016-Dec-04 18:33N 37°55' W 122°22'3 3.2
2016-Dec-04 17:33N 37°56' W 122°25'7 7.2
2016-Dec-04 16:33N 38°02' W 122°21'8 7.7
2016-Dec-04 15:33N 38°03' W 122°12'4 4.4
2016-Dec-04 14:33N 38°03' W 122°06'0 0.0
2016-Dec-03 14:32N 38°03' W 122°06'6 6.5
2016-Dec-03 13:33N 38°04' W 122°14'1010.3
2016-Dec-03 12:33N 37°59' W 122°26'1010.4
2016-Dec-03 11:33N 37°49' W 122°23'2 2.1
2016-Dec-03 10:33N 37°46' W 122°23'0 0.0
2016-Dec-03 09:34N 37°46' W 122°23'0 0.0
2016-Dec-03 08:33N 37°46' W 122°23'0 0.0
2016-Dec-03 07:33N 37°46' W 122°23'0 0.0
2016-Dec-03 06:33N 37°46' W 122°23'0 0.0
2016-Dec-03 05:34N 37°46' W 122°23'0 0.0
2016-Dec-03 04:33N 37°46' W 122°23'0 0.0
2016-Dec-03 03:34N 37°46' W 122°23'3 3.2
2016-Dec-03 02:33N 37°50' W 122°24'4 3.6
2016-Dec-03 01:34N 37°53' W 122°25'7 6.7
2016-Dec-03 00:33N 37°46' W 122°23'0 0.0
2016-Dec-02 23:33N 37°46' W 122°23'0 0.0
2016-Dec-02 22:33N 37°46' W 122°23'0 0.0
2016-Dec-02 21:33N 37°46' W 122°23'0 0.0
2016-Dec-02 20:33N 37°46' W 122°23'0 0.0
2016-Dec-02 19:33N 37°46' W 122°23'0 0.0
2016-Dec-02 18:34N 37°46' W 122°23'0 0.0
2016-Dec-02 17:34N 37°46' W 122°23'2 1.5
2016-Dec-02 16:34N 37°48' W 122°23'8 7.7
2016-Dec-02 15:33N 37°55' W 122°26'0 0.0
2016-Dec-02 14:31N 37°55' W 122°26'0 0.0
2016-Dec-02 13:31N 37°55' W 122°26'0 0.0
2016-Dec-02 12:31N 37°55' W 122°26'0 0.0
2016-Dec-02 11:28N 37°55' W 122°26'0 0.6
2016-Dec-02 10:33N 37°55' W 122°26'9 8.6
2016-Dec-02 09:33N 37°48' W 122°32'9 9.5
2016-Dec-02 08:33N 37°46' W 122°43'9 8.8
2016-Dec-02 07:33N 37°49' W 122°54'9 9.0
2016-Dec-02 06:33N 37°54' W 123°04'9 9.0
2016-Dec-02 05:33N 37°59' W 123°13'9 9.3
2016-Dec-02 04:33N 38°06' W 123°20'10 9.6
2016-Dec-02 03:33N 38°15' W 123°26'10 9.6
2016-Dec-02 02:33N 38°23' W 123°32'10 9.6
2016-Dec-02 01:33N 38°32' W 123°38'11 9.7
2016-Dec-02 00:26N 38°41' W 123°44'  

Dump ship's entire track history